createdAt,value
2023-01-23T00:00:46.238Z,101623.08
2023-01-23T00:03:52.219Z,101622.03
2023-01-23T00:06:57.920Z,101628.05
2023-01-23T00:10:04.427Z,101626.94
2023-01-23T00:13:09.718Z,101625.97
2023-01-23T00:16:23.552Z,101627.33
2023-01-23T00:19:28.216Z,101624.62
2023-01-23T00:22:34.068Z,101633.29
2023-01-23T00:25:39.529Z,101632.17
2023-01-23T00:28:45.902Z,101628.52
2023-01-23T00:31:52.464Z,101631.34
2023-01-23T00:34:58.498Z,101632.71
2023-01-23T00:38:04.782Z,101633.13
2023-01-23T00:41:11.968Z,101643.45
2023-01-23T00:44:10.659Z,101639.87
2023-01-23T00:47:03.389Z,101641.84
2023-01-23T00:50:08.537Z,101639.16
2023-01-23T00:53:14.593Z,101639.28
2023-01-23T00:56:20.583Z,101640.66
2023-01-23T00:59:26.301Z,101645.92
2023-01-23T01:02:25.273Z,101645.53
2023-01-23T01:05:32.976Z,101642.34
2023-01-23T01:08:40.517Z,101643.53
2023-01-23T01:11:45.979Z,101640.64
2023-01-23T01:14:50.990Z,101645.78
2023-01-23T01:17:56.950Z,101634.13
2023-01-23T01:21:02.931Z,101637.41
2023-01-23T01:24:08.343Z,101636.06
2023-01-23T01:27:13.791Z,101636.44
2023-01-23T01:30:06.779Z,101629.99
2023-01-23T01:33:04.650Z,101633.01
2023-01-23T01:36:10.635Z,101630.25
2023-01-23T01:39:10.535Z,101624.70
2023-01-23T01:42:16.383Z,101620.39
2023-01-23T01:45:22.896Z,101618.09
2023-01-23T01:48:28.840Z,101624.41
2023-01-23T01:51:45.304Z,101616.28
2023-01-23T01:55:10.455Z,101610.83
2023-01-23T01:58:15.630Z,101610.16
2023-01-23T02:01:21.738Z,101615.07
2023-01-23T02:04:27.529Z,101621.52
2023-01-23T02:07:40.334Z,101623.58
2023-01-23T02:10:47.542Z,101619.02
2023-01-23T02:13:53.934Z,101612.86
2023-01-23T02:17:01.359Z,101616.20
2023-01-23T02:20:35.900Z,101624.41
2023-01-23T02:23:55.440Z,101621.13
2023-01-23T02:27:01.393Z,101613.75
2023-01-23T02:30:07.291Z,101611.59
2023-01-23T02:33:36.993Z,101624.05
2023-01-23T02:36:45.836Z,101618.18
2023-01-23T02:39:52.622Z,101622.45
2023-01-23T02:42:59.457Z,101616.77
2023-01-23T02:46:07.679Z,101611.50
2023-01-23T02:49:13.628Z,101618.44
2023-01-23T02:52:19.419Z,101614.97
2023-01-23T02:55:26.619Z,101625.05
2023-01-23T02:58:49.936Z,101615.48
2023-01-23T03:01:58.360Z,101621.77
2023-01-23T03:05:05.099Z,101621.88
2023-01-23T03:08:10.922Z,101627.74
2023-01-23T03:11:17.395Z,101626.55
2023-01-23T03:14:28.978Z,101622.98
2023-01-23T03:17:35.723Z,101627.90
2023-01-23T03:20:41.931Z,101645.03
2023-01-23T03:23:47.204Z,101625.78
2023-01-23T03:26:58.233Z,101634.16
2023-01-23T03:30:23.324Z,101630.20
2023-01-23T03:33:23.704Z,101630.05
2023-01-23T03:36:16.944Z,101628.41
2023-01-23T03:39:33.914Z,101627.42
2023-01-23T03:42:32.833Z,101632.42
2023-01-23T03:45:39.312Z,101628.28
2023-01-23T03:48:46.207Z,101620.52
2023-01-23T03:51:51.725Z,101629.95
2023-01-23T03:54:57.874Z,101635.23
2023-01-23T03:58:04.985Z,101625.25
2023-01-23T04:01:13.134Z,101642.84
2023-01-23T04:04:19.317Z,101641.45
2023-01-23T04:07:24.222Z,101639.27
2023-01-23T04:10:30.716Z,101635.16
2023-01-23T04:13:38.961Z,101643.73
2023-01-23T04:16:45.149Z,101648.58
2023-01-23T04:19:51.536Z,101637.73
2023-01-23T04:22:57.633Z,101643.55
2023-01-23T04:26:05.383Z,101641.33
2023-01-23T04:29:04.276Z,101643.89
2023-01-23T04:32:05.197Z,101649.35
2023-01-23T04:35:12.898Z,101653.95
2023-01-23T04:38:19.953Z,101645.34
2023-01-23T04:41:34.837Z,101651.47
2023-01-23T04:44:43.257Z,101658.98
2023-01-23T04:48:05.900Z,101664.25
2023-01-23T04:51:10.948Z,101656.70
2023-01-23T04:54:17.298Z,101669.41
2023-01-23T04:57:24.486Z,101673.11
2023-01-23T05:00:35.234Z,101678.13
2023-01-23T05:03:41.902Z,101674.48
2023-01-23T05:06:42.838Z,101692.09
2023-01-23T05:09:48.786Z,101686.47
2023-01-23T05:12:55.804Z,101691.44
2023-01-23T05:16:00.994Z,101686.29
2023-01-23T05:19:02.993Z,101690.78
2023-01-23T05:21:49.162Z,101696.75
2023-01-23T05:24:42.751Z,101703.25
2023-01-23T05:27:28.234Z,101704.78
2023-01-23T05:30:21.723Z,101718.02
2023-01-23T05:33:30.205Z,101709.69
2023-01-23T05:36:36.410Z,101714.36
2023-01-23T05:39:41.500Z,101710.08
2023-01-23T05:42:46.485Z,101710.47
2023-01-23T05:46:09.666Z,101721.34
2023-01-23T05:49:20.392Z,101721.63
2023-01-23T05:52:28.742Z,101728.37
2023-01-23T05:55:34.494Z,101727.45
2023-01-23T05:58:40.649Z,101735.34
2023-01-23T06:01:51.076Z,101740.59
2023-01-23T06:05:15.749Z,101734.95
2023-01-23T06:08:27.863Z,101742.17
2023-01-23T06:11:34.782Z,101739.78
2023-01-23T06:14:33.860Z,101742.80
2023-01-23T06:17:27.399Z,101747.95
2023-01-23T06:20:33.110Z,101751.98
2023-01-23T06:23:39.429Z,101749.92
2023-01-23T06:26:46.158Z,101753.43
2023-01-23T06:29:52.135Z,101757.12
2023-01-23T06:32:58.578Z,101758.16
2023-01-23T06:36:14.928Z,101757.02
2023-01-23T06:39:20.587Z,101755.70
2023-01-23T06:42:25.784Z,101761.47
2023-01-23T06:45:31.729Z,101764.12
2023-01-23T06:48:38.204Z,101758.02
2023-01-23T06:51:44.192Z,101763.56
2023-01-23T06:54:50.725Z,101765.76
2023-01-23T06:57:56.257Z,101774.41
2023-01-23T07:01:03.433Z,101780.19
2023-01-23T07:04:28.107Z,101781.56
2023-01-23T07:07:33.493Z,101780.47
2023-01-23T07:10:40.627Z,101784.75
2023-01-23T07:13:46.891Z,101785.08
2023-01-23T07:16:55.039Z,101795.05
2023-01-23T07:20:01.905Z,101791.52
2023-01-23T07:23:09.688Z,101792.17
2023-01-23T07:26:18.436Z,101797.82
2023-01-23T07:29:23.590Z,101802.56
2023-01-23T07:32:29.481Z,101807.83
2023-01-23T07:35:35.740Z,101807.05
2023-01-23T07:38:41.133Z,101813.95
2023-01-23T07:41:48.743Z,101810.63
2023-01-23T07:44:48.477Z,101819.52
2023-01-23T07:47:53.573Z,101821.59
2023-01-23T07:50:58.767Z,101822.77
2023-01-23T07:54:04.025Z,101829.83
2023-01-23T07:57:13.492Z,101831.81
2023-01-23T08:00:22.397Z,101839.03
2023-01-23T08:03:28.107Z,101835.61
2023-01-23T08:06:34.211Z,101839.59
2023-01-23T08:09:39.971Z,101844.42
2023-01-23T08:12:45.911Z,101841.88
2023-01-23T08:15:53.750Z,101844.27
2023-01-23T08:18:58.812Z,101843.64
2023-01-23T08:22:04.511Z,101853.23
2023-01-23T08:25:09.467Z,101852.19
2023-01-23T08:28:14.668Z,101851.94
2023-01-23T08:31:22.266Z,101853.19
2023-01-23T08:34:28.335Z,101858.77
2023-01-23T08:37:35.356Z,101864.55
2023-01-23T08:40:41.707Z,101853.28
2023-01-23T08:43:48.285Z,101862.81
2023-01-23T08:46:55.821Z,101863.44
2023-01-23T08:50:02.141Z,101856.07
2023-01-23T08:53:07.348Z,101860.31
2023-01-23T08:56:16.900Z,101855.41
2023-01-23T08:59:22.780Z,101857.30
2023-01-23T09:02:28.596Z,101859.88
2023-01-23T09:05:33.628Z,101861.58
2023-01-23T09:08:38.946Z,101863.36
2023-01-23T09:11:44.400Z,101859.45
2023-01-23T09:14:49.875Z,101859.00
2023-01-23T09:17:55.816Z,101861.38
2023-01-23T09:21:00.981Z,101864.25
2023-01-23T09:24:07.435Z,101866.43
2023-01-23T09:27:12.827Z,101857.31
2023-01-23T09:30:19.743Z,101867.00
2023-01-23T09:33:27.773Z,101865.31
2023-01-23T09:36:42.565Z,101871.77
2023-01-23T09:39:40.342Z,101875.95
2023-01-23T09:42:49.107Z,101881.45
2023-01-23T09:45:54.313Z,101883.44
2023-01-23T09:49:09.334Z,101884.25
2023-01-23T09:52:22.328Z,101881.79
2023-01-23T09:55:42.132Z,101879.88
2023-01-23T09:58:53.947Z,101877.85
2023-01-23T10:01:59.941Z,101875.97
2023-01-23T10:05:09.495Z,101867.91
2023-01-23T10:08:49.603Z,101873.13
2023-01-23T10:12:09.774Z,101875.02
2023-01-23T10:15:34.418Z,101863.84
2023-01-23T10:19:18.350Z,101864.06
2023-01-23T10:22:47.418Z,101869.38
2023-01-23T10:25:53.702Z,101859.97
2023-01-23T10:28:59.411Z,101871.72
2023-01-23T10:32:06.507Z,101869.17
2023-01-23T10:35:22.009Z,101855.36
2023-01-23T10:38:58.968Z,101859.58
2023-01-23T10:42:04.758Z,101851.95
2023-01-23T10:45:10.611Z,101851.23
2023-01-23T10:48:16.743Z,101853.70
2023-01-23T10:51:45.080Z,101861.62
2023-01-23T10:55:00.371Z,101859.14
2023-01-23T10:58:09.863Z,101848.22
2023-01-23T11:01:18.354Z,101861.55
2023-01-23T11:04:35.674Z,101851.21
2023-01-23T11:07:42.723Z,101842.75
2023-01-23T11:10:48.310Z,101836.73
2023-01-23T11:13:55.333Z,101850.76
2023-01-23T11:17:00.817Z,101845.47
2023-01-23T11:20:08.313Z,101847.59
2023-01-23T11:23:31.591Z,101845.14
2023-01-23T11:26:48.211Z,101846.48
2023-01-23T16:10:52.920Z,101929.77
2023-01-23T16:13:58.517Z,101932.24
2023-01-23T16:17:16.386Z,101937.33
2023-01-23T16:20:13.265Z,101921.73
2023-01-23T16:23:46.658Z,101920.35
2023-01-23T16:26:42.757Z,101920.61
2023-01-23T16:29:51.312Z,101922.38
2023-01-23T16:32:57.977Z,101929.02
2023-01-23T16:36:04.149Z,101925.09
2023-01-23T16:39:09.118Z,101931.58
2023-01-23T16:42:15.431Z,101926.80
2023-01-23T16:45:38.546Z,101925.27
2023-01-23T16:48:45.458Z,101924.08
2023-01-23T16:51:51.679Z,101929.49
2023-01-23T16:54:59.082Z,101930.54
2023-01-23T16:58:06.642Z,101927.86
2023-01-23T17:01:24.169Z,101928.30
2023-01-23T17:04:32.496Z,101924.28
2023-01-23T17:07:38.280Z,101918.50
2023-01-23T17:10:46.648Z,101914.21
2023-01-23T17:13:51.092Z,101923.56
2023-01-23T17:16:56.898Z,101914.61
2023-01-23T17:20:02.616Z,101913.67
2023-01-23T17:23:08.297Z,101918.17
2023-01-23T17:26:14.732Z,101911.60
2023-01-23T17:29:20.408Z,101913.59
2023-01-23T17:32:34.480Z,101908.00
2023-01-23T17:35:51.429Z,101909.39
2023-01-23T17:38:58.419Z,101903.66
2023-01-23T17:42:04.414Z,101904.53
2023-01-23T17:45:10.155Z,101898.56
2023-01-23T17:48:15.759Z,101900.15
2023-01-23T17:51:23.759Z,101896.48
2023-01-23T17:54:34.744Z,101893.53
2023-01-23T17:57:41.216Z,101897.06
2023-01-23T18:00:46.818Z,101898.91
2023-01-23T18:03:51.911Z,101899.36
2023-01-23T18:06:59.055Z,101902.26
2023-01-23T18:10:04.763Z,101896.66
2023-01-23T18:13:55.927Z,101897.56
2023-01-23T18:17:02.465Z,101894.52
2023-01-23T18:20:08.658Z,101891.81
2023-01-23T18:23:07.368Z,101888.92
2023-01-23T18:25:53.196Z,101889.23
2023-01-23T18:29:18.502Z,101887.41
2023-01-23T18:32:26.311Z,101878.80
2023-01-23T18:36:05.664Z,101876.83
2023-01-23T18:39:27.095Z,101875.34
2023-01-23T18:42:46.464Z,101884.51
2023-01-23T18:45:51.716Z,101881.75
2023-01-23T18:48:58.519Z,101885.98
2023-01-23T18:52:29.493Z,101888.64
2023-01-23T18:56:04.692Z,101888.83
2023-01-23T18:59:32.558Z,101890.70
2023-01-23T19:02:49.929Z,101887.88
2023-01-23T19:05:56.994Z,101880.98
2023-01-23T19:09:03.812Z,101875.20
2023-01-23T19:12:25.744Z,101876.55
2023-01-23T19:15:57.326Z,101875.14
2023-01-23T19:19:23.630Z,101876.70
2023-01-23T19:22:28.115Z,101877.78
2023-01-23T19:25:33.216Z,101884.05
2023-01-23T19:28:40.895Z,101880.06
2023-01-23T19:32:03.710Z,101880.31
2023-01-23T19:34:50.655Z,101875.23
2023-01-23T19:37:57.391Z,101873.27
2023-01-23T19:41:03.978Z,101875.34
2023-01-23T19:44:10.623Z,101870.67
2023-01-23T19:47:16.340Z,101867.47
2023-01-23T19:50:25.914Z,101877.20
2023-01-23T19:53:32.384Z,101871.27
2023-01-23T19:56:38.195Z,101872.81
2023-01-23T19:59:43.743Z,101871.69
2023-01-23T20:02:49.624Z,101874.23
2023-01-23T20:05:55.756Z,101883.80
2023-01-23T20:09:01.805Z,101884.95
2023-01-23T20:12:07.494Z,101884.66
2023-01-23T20:15:13.691Z,101887.84
2023-01-23T20:18:22.023Z,101890.05
2023-01-23T20:21:27.930Z,101893.52
2023-01-23T20:24:34.505Z,101894.63
2023-01-23T20:27:41.635Z,101897.16
2023-01-23T20:30:47.141Z,101896.20
2023-01-23T20:33:52.660Z,101899.52
2023-01-23T20:36:58.135Z,101900.30
2023-01-23T20:40:09.374Z,101904.96
2023-01-23T20:43:17.351Z,101907.22
2023-01-23T20:46:26.134Z,101904.34
2023-01-23T20:49:25.130Z,101902.06
2023-01-23T20:52:48.580Z,101894.59
2023-01-23T20:55:55.799Z,101900.52
2023-01-23T20:59:20.694Z,101904.77
2023-01-23T21:02:32.597Z,101902.37
2023-01-23T21:05:37.878Z,101909.02
2023-01-23T21:08:43.840Z,101899.67
2023-01-23T21:11:49.613Z,101905.83
2023-01-23T21:14:55.767Z,101901.15
2023-01-23T21:18:01.199Z,101911.09
2023-01-23T21:21:08.049Z,101906.41
2023-01-23T21:24:13.536Z,101909.35
2023-01-23T21:27:23.453Z,101909.14
2023-01-23T21:30:28.140Z,101915.41
2023-01-23T21:33:34.205Z,101914.16
2023-01-23T21:36:39.810Z,101907.35
2023-01-23T21:39:45.587Z,101916.95
2023-01-23T21:42:51.941Z,101909.45
2023-01-23T21:45:58.476Z,101904.66
2023-01-23T21:49:03.973Z,101915.99
2023-01-23T21:52:09.282Z,101913.62
2023-01-23T21:55:14.926Z,101913.67
2023-01-23T21:58:20.440Z,101911.84
2023-01-23T22:01:42.807Z,101907.97
2023-01-23T22:04:49.259Z,101907.35
2023-01-23T22:07:55.489Z,101904.33
2023-01-23T22:11:01.466Z,101900.52
2023-01-23T22:14:08.437Z,101898.70
2023-01-23T22:17:14.881Z,101900.28
2023-01-23T22:20:20.802Z,101898.45
2023-01-23T22:23:27.272Z,101900.87
2023-01-23T22:26:33.845Z,101892.90
2023-01-23T22:29:39.082Z,101893.63
2023-01-23T22:32:47.543Z,101895.09
2023-01-23T22:35:56.504Z,101896.20
2023-01-23T22:39:06.877Z,101894.52
2023-01-23T22:42:13.053Z,101899.19
2023-01-23T22:45:18.678Z,101900.91
2023-01-23T22:48:24.044Z,101902.83
2023-01-23T22:51:38.590Z,101894.54
2023-01-23T22:54:44.371Z,101899.94
2023-01-23T22:57:49.868Z,101901.53
2023-01-23T23:00:59.164Z,101907.98
2023-01-23T23:04:04.770Z,101901.95
2023-01-23T23:07:11.288Z,101898.53
2023-01-23T23:10:19.774Z,101895.47
2023-01-23T23:13:25.430Z,101896.79
2023-01-23T23:16:36.073Z,101893.44
2023-01-23T23:19:41.613Z,101894.96
2023-01-23T23:22:48.217Z,101903.35
2023-01-23T23:25:53.415Z,101901.23
2023-01-23T23:29:00.843Z,101897.86
2023-01-23T23:32:05.961Z,101895.75
2023-01-23T23:35:11.972Z,101899.49
2023-01-23T23:38:17.947Z,101903.20
2023-01-23T23:41:28.226Z,101903.80
2023-01-23T23:44:33.597Z,101901.62
2023-01-23T23:47:39.554Z,101897.81
2023-01-23T23:50:47.054Z,101901.59
2023-01-23T23:53:53.163Z,101898.32
2023-01-23T23:56:58.003Z,101900.00
